Airfield :
LOGIN :

Register | Disclaimer

   EN    FR    IT 

 










Legend :    VFR   Marginal VFR   IFR   Intensive IFR   Very Intensive IFR
Visi :
Ceiling :
>= 8 km
>= 3000ft
5 to 8 km
1000 to 3000 ft
1500m to 5 km
500 to 1000 ft
800 to 1500m
200 to 500 ft
< 800m
< 200 ft
Symbols :   Thunderstorms  Fog  Heavy snow  Heavy precipitations  Wind > 20 kt
SIGMETs :     Misc.  Thunderstorms  Icing  Turbulence  Mountain Waves  Volcanic Ashes







- Airport Elevation : 1197 ft
- IATA code : SPM


ETAD - Spangdahlem Ab

CURRENT METAR :
  • 241056Z AUTO 11010KT 9999 CLR 26/12 A3017 RMK AO2 SLP193 T02550116 $

EXPIRED METARs :
  • 240956Z AUTO 10010KT 9999 CLR 25/12 A3018 RMK AO2 SLP197 T02460119 $
  • 240856Z AUTO 08006KT 9999 CLR 23/13 A3019 RMK AO2 SLP201 T02310130 58001 $

TAF TAF ETAD
Valid from the 24 at 06:00 until the 25 at 12:00 UTC


240600Z 2406/2512 08009KT 9999 FEW050 QNH3014INS
BECMG 2423/2424 09005KT 8000 BR SCT030 QNH3006INS
BECMG 2508/2509 09005KT 9999 NSW SCT030 QNH3008INS TX26/2416Z TN12/2504Z
No reported NOTAMs for that airfield.



MET'MAP, your aeronautical weather chart ! - Copyright ORBIFLY December 2007 - Disclaimer

ORBIFLY MET'MAP TEAM :

Programming & Development : Alexandra Zaïnal
Concept & Development : Baudouin d'Aumeries
Co-Development & Prog : Marc-Olivier Méhu
Technical & hardware support : Manuel Goepfert

Contact : metmap@orbifly.com




SOURCES & CREDITS :

   NOAA